庄内空港の過去48時間の天気

庄内空港 (Shonai)

現在時刻: 8/18 22:01 JST (8/18 13:01 UTC) 以下の時間は現地時間です。

過去48時間のMETAR気象情報
時間 風向 風速(m/s) 視程 気温(℃) 湿度(%) 気圧(hPa) 天気現象
18 21:00 西北西 7 10km以上 24 78 1004
18 20:00 北西 6 10km以上 24 78 1004
18 19:00 西北西 7 10km以上 23 83 1004 弱いしゅう雨
18 18:00 西北西 8 10km以上 25 78 1003 弱いしゅう雨
18 17:00 西 8 10km以上 25 83 1002 周辺でしゅう雨
18 16:00 西 8 10km以上 25 78 1002 周辺でしゅう雨
18 15:00 西南西 13 10km以上 25 83 1000
18 14:00 西南西 9 10km以上 26 89 999
18 13:00 西南西 8 10km以上 23 100 1000 周辺でしゅう雨
18 12:00 不定 1 3000m 22 94 1000 しゅう雨 もや
18 11:44 2 3500m 22 94 1000 弱いしゅう雨 もや
18 11:25 不定 1 3500m 22 94 1001 弱いしゅう雨 もや
18 11:00 不定 1 10km以上 22 94 1001 弱いしゅう雨
18 10:00 東南東 4 10km以上 23 89 1001 弱いしゅう雨
18 09:00 東南東 5 10km以上 23 89 1002 弱いしゅう雨
18 08:00 南東 5 10km以上 22 100 1003 弱いしゅう雨
18 07:34 東南東 7 10km以上 22 94 1002 弱いしゅう雨
18 07:00 東南東 4 3500m 22 94 1003 強いしゅう雨 もや
17 21:00 4 10km以上 24 89 1009 弱いしゅう雨
17 20:00 2 10km以上 24 83 1009 弱いしゅう雨
17 19:00 2 10km以上 24 89 1009
17 18:00 北西 1 10km以上 25 78 1009
17 17:00 不定 1 10km以上 26 74 1009
17 16:00 北西 2 10km以上 26 74 1009
17 15:00 北北西 2 10km以上 26 70 1009
17 14:00 西北西 3 10km以上 27 70 1009
17 13:00 西北西 3 10km以上 27 70 1009
17 12:00 3 10km以上 27 74 1009
17 11:00 西北西 3 10km以上 26 74 1009
17 10:00 西 3 10km以上 27 70 1010
17 09:00 西北西 3 10km以上 25 74 1009
17 08:00 西 2 10km以上 25 78 1009
17 07:00 西 2 10km以上 25 78 1009
RJSY 181200Z 29014KT 9999 FEW005 SCT020 BKN030 24/20 Q1004
RJSY 181100Z 31012KT 270V350 9999 FEW005 SCT020 BKN040 24/20 Q1004
RJSY 181000Z 30014G27KT 9999 -SHRA FEW005 SCT015 BKN040 23/20 Q1004
RJSY 180900Z 29016KT 9999 -SHRA FEW005 SCT015 BKN030 25/21 Q1003
RJSY 180800Z 28016KT 9999 VCSH FEW005 SCT015 BKN030 25/22 Q1002
RJSY 180700Z 27016KT 9999 VCSH FEW010 SCT015 BKN025 25/21 Q1002
RJSY 180600Z 25026KT 9999 FEW010 SCT020 BKN030 25/22 Q1000
RJSY 180500Z 24017KT 9999 FEW005 SCT120 26/24 Q0999
RJSY 180400Z 24015KT 9999 VCSH FEW002 SCT008 BKN015 23/23 Q1000
RJSY 180300Z VRB02KT 3000 SHRA BR FEW003 BKN005 BKN008 22/21 Q1000
RJSY 180244Z 09003KT 3500 -SHRA BR FEW005 BKN007 BKN010 22/21 Q1000 RMK 1ST005 5ST007 7ST010 A2956
RJSY 180225Z VRB01KT 3500 R09/2000N -SHRA BR FEW007 SCT012 BKN020 22/21 Q1001 RMK 1ST007 4ST012 6CU020 A2956
RJSY 180200Z VRB02KT 9999 -SHRA FEW007 SCT015 BKN030 22/21 Q1001
RJSY 180100Z 12007KT 100V160 9999 -SHRA FEW010 BKN050 23/21 Q1001
RJSY 180000Z 12009KT 9999 -SHRA FEW010 SCT050 BKN080 23/21 Q1002
RJSY 172300Z 13010KT 9999 -SHRA FEW005 SCT050 BKN110 22/22 Q1003
RJSY 172234Z 12013KT 9999 -SHRA FEW005 SCT050 BKN120 22/21 Q1002 RMK 1ST005 4CU050 7AC120 A2961
RJSY 172200Z 12008KT 3500 +SHRA BR FEW020 SCT035 BKN045 22/21 Q1003
RJSY 171200Z 09008KT 9999 -SHRA FEW020 SCT050 BKN070 24/22 Q1009
RJSY 171100Z 09003KT 9999 -SHRA FEW020 SCT050 BKN080 24/21 Q1009
RJSY 171000Z 10003KT 9999 FEW020 SCT030 BKN050 24/22 Q1009
RJSY 170900Z 32002KT 9999 FEW020 SCT030 BKN040 25/21 Q1009
RJSY 170800Z VRB02KT 9999 FEW020 SCT030 BKN040 26/21 Q1009
RJSY 170700Z 32003KT 260V010 9999 FEW020 SCT030 BKN/// 26/21 Q1009
RJSY 170600Z 34004KT 280V040 9999 FEW020 BKN/// 26/20 Q1009
RJSY 170500Z 30005KT 270V010 9999 FEW020 BKN/// 27/21 Q1009
RJSY 170400Z 29005KT 250V350 9999 FEW020 BKN/// 27/21 Q1009
RJSY 170300Z VRB05KT 9999 FEW020 BKN/// 27/22 Q1009
RJSY 170200Z 30005KT 260V010 9999 FEW020 BKN/// 26/21 Q1009
RJSY 170100Z 28006KT 250V320 9999 FEW015 BKN/// 27/21 Q1010
RJSY 170000Z 29006KT 260V340 9999 FEW015 SCT040 BKN/// 25/20 Q1009
RJSY 162300Z 28003KT 250V310 9999 FEW010 SCT020 BKN/// 25/21 Q1009
RJSY 162200Z 28004KT 9999 FEW005 SCT025 BKN/// 25/21 Q1009